createdAt,value
2019-02-24T00:00:10.278Z,99.10
2019-02-24T00:02:41.189Z,99.00
2019-02-24T00:05:10.517Z,98.90
2019-02-24T00:07:39.813Z,99.00
2019-02-24T00:10:09.092Z,98.90
2019-02-24T00:12:38.390Z,98.90
2019-02-24T00:15:08.908Z,98.90
2019-02-24T00:17:38.199Z,98.90
2019-02-24T00:20:07.496Z,98.80
2019-02-24T00:22:36.784Z,98.80
2019-02-24T00:25:06.063Z,98.80
2019-02-24T00:27:36.332Z,98.90
2019-02-24T00:30:07.312Z,98.90
2019-02-24T00:32:36.618Z,99.00
2019-02-24T00:35:06.626Z,98.90
2019-02-24T00:37:35.934Z,98.90
2019-02-24T00:40:06.868Z,98.70
2019-02-24T00:42:36.170Z,98.70
2019-02-24T00:45:07.858Z,98.60
2019-02-24T00:47:37.145Z,98.60
2019-02-24T00:50:10.857Z,98.70
2019-02-24T00:52:40.135Z,98.70
2019-02-24T00:55:10.957Z,98.80
2019-02-24T00:57:40.255Z,98.90
2019-02-24T01:00:11.136Z,99.00
2019-02-24T01:02:42.051Z,99.10
2019-02-24T01:05:11.332Z,99.30
2019-02-24T01:07:40.618Z,99.40
2019-02-24T01:10:10.038Z,99.70
2019-02-24T01:12:39.352Z,99.50
2019-02-24T01:15:10.085Z,99.70
2019-02-24T01:17:39.368Z,99.80
2019-02-24T01:20:09.524Z,99.90
2019-02-24T01:22:38.810Z,99.90
2019-02-24T01:25:08.238Z,99.90
2019-02-24T01:27:37.525Z,99.90
2019-02-24T01:30:09.787Z,99.90
2019-02-24T01:32:39.144Z,99.90
2019-02-24T01:35:08.700Z,99.90
2019-02-24T01:37:37.991Z,99.90
2019-02-24T01:40:08.425Z,99.90
2019-02-24T01:42:37.727Z,99.70
2019-02-24T01:45:07.842Z,99.60
2019-02-24T01:47:37.136Z,99.60
2019-02-24T01:50:08.467Z,99.90
2019-02-24T01:52:37.747Z,99.90
2019-02-24T01:55:07.706Z,99.90
2019-02-24T01:57:36.990Z,99.90
2019-02-24T02:00:10.053Z,99.90
2019-02-24T02:02:39.359Z,99.90
2019-02-24T02:05:08.727Z,99.90
2019-02-24T02:07:38.015Z,99.90
2019-02-24T02:10:07.381Z,99.90
2019-02-24T02:12:36.650Z,99.90
2019-02-24T02:15:06.484Z,99.90
2019-02-24T02:17:35.765Z,99.90
2019-02-24T02:20:07.818Z,99.90
2019-02-24T02:22:37.098Z,99.90
2019-02-24T02:25:08.129Z,99.90
2019-02-24T02:27:37.407Z,99.90
2019-02-24T02:30:09.457Z,99.90
2019-02-24T02:32:39.908Z,99.90
2019-02-24T02:35:09.187Z,99.90
2019-02-24T02:37:38.470Z,99.90
2019-02-24T02:40:08.542Z,99.90
2019-02-24T02:42:38.096Z,99.90
2019-02-24T02:45:08.427Z,99.90
2019-02-24T02:47:37.726Z,99.90
2019-02-24T02:50:07.014Z,99.90
2019-02-24T02:52:36.368Z,99.90
2019-02-24T02:55:06.744Z,99.90
2019-02-24T02:57:36.023Z,99.90
2019-02-24T03:00:29.092Z,99.90
2019-02-24T03:02:58.377Z,99.90
2019-02-24T03:05:27.661Z,99.90
2019-02-24T03:08:04.603Z,99.90
2019-02-24T03:10:33.970Z,99.90
2019-02-24T03:13:03.239Z,99.90
2019-02-24T03:15:33.504Z,99.90
2019-02-24T03:18:02.785Z,99.90
2019-02-24T03:20:32.146Z,99.90
2019-02-24T03:23:01.425Z,99.90
2019-02-24T03:25:30.722Z,99.90
2019-02-24T03:28:00.002Z,99.90
2019-02-24T03:30:29.300Z,99.90
2019-02-24T03:32:58.663Z,99.90
2019-02-24T03:35:27.942Z,99.90
2019-02-24T03:37:57.227Z,99.90
2019-02-24T03:40:26.582Z,99.90
2019-02-24T03:42:55.861Z,99.90
2019-02-24T03:45:25.155Z,99.90
2019-02-24T03:47:54.445Z,99.90
2019-02-24T03:50:23.731Z,99.90
2019-02-24T03:52:53.008Z,99.90
2019-02-24T03:55:22.304Z,99.90
2019-02-24T03:57:51.583Z,99.90
2019-02-24T04:00:20.876Z,99.90
2019-02-24T04:02:50.158Z,99.90
2019-02-24T04:05:19.447Z,99.90
2019-02-24T04:07:48.747Z,99.90
2019-02-24T04:10:18.032Z,99.90
2019-02-24T04:12:47.330Z,99.90
2019-02-24T04:15:16.612Z,99.90
2019-02-24T04:17:45.907Z,99.90
2019-02-24T04:20:15.188Z,99.90
2019-02-24T04:22:44.483Z,99.90
2019-02-24T04:25:13.772Z,99.90
2019-02-24T04:27:43.059Z,99.90
2019-02-24T04:30:12.358Z,99.90
2019-02-24T04:32:41.645Z,99.90
2019-02-24T04:35:10.926Z,99.90
2019-02-24T04:37:40.220Z,99.90
2019-02-24T04:40:09.506Z,99.90
2019-02-24T04:42:38.801Z,99.90
2019-02-24T04:45:08.158Z,99.90
2019-02-24T04:47:37.461Z,99.90
2019-02-24T04:50:06.737Z,99.90
2019-02-24T04:52:36.017Z,99.90
2019-02-24T04:55:06.312Z,99.90
2019-02-24T04:57:35.647Z,99.90
2019-02-24T05:00:07.752Z,99.90
2019-02-24T05:02:37.122Z,99.90
2019-02-24T05:05:06.414Z,99.90
2019-02-24T05:07:35.707Z,99.90
2019-02-24T05:10:06.133Z,99.90
2019-02-24T05:12:35.447Z,99.90
2019-02-24T05:15:05.639Z,99.90
2019-02-24T05:17:34.935Z,99.90
2019-02-24T05:20:05.934Z,99.90
2019-02-24T05:22:35.231Z,99.90
2019-02-24T05:25:05.358Z,99.90
2019-02-24T05:27:35.631Z,99.90
2019-02-24T05:30:06.263Z,99.90
2019-02-24T05:32:35.579Z,99.90
2019-02-24T05:35:05.504Z,99.90
2019-02-24T05:37:34.860Z,99.90
2019-02-24T05:40:05.295Z,99.90
2019-02-24T05:42:35.639Z,99.90
2019-02-24T05:45:05.863Z,99.90
2019-02-24T05:47:35.172Z,99.90
2019-02-24T05:50:05.095Z,99.90
2019-02-24T05:52:35.385Z,99.90
2019-02-24T05:55:05.564Z,99.90
2019-02-24T05:57:34.862Z,99.90
2019-02-24T06:00:04.992Z,99.90
2019-02-24T06:02:34.363Z,99.90
2019-02-24T06:05:04.110Z,99.90
2019-02-24T06:07:33.406Z,99.90
2019-02-24T06:10:02.691Z,99.90
2019-02-24T06:12:31.983Z,99.90
2019-02-24T06:15:01.275Z,99.90
2019-02-24T06:17:30.610Z,99.90
2019-02-24T06:19:59.900Z,99.90
2019-02-24T06:22:29.195Z,99.90
2019-02-24T06:24:58.493Z,99.90
2019-02-24T06:27:27.781Z,99.90
2019-02-24T06:30:04.518Z,99.90
2019-02-24T06:32:28.066Z,99.90
2019-02-24T06:34:58.339Z,99.90
2019-02-24T06:37:27.644Z,99.90
2019-02-24T06:39:56.958Z,99.90
2019-02-24T06:42:26.245Z,99.90
2019-02-24T06:44:55.539Z,99.90
2019-02-24T06:47:24.834Z,99.90
2019-02-24T06:49:54.144Z,99.90
2019-02-24T06:52:24.594Z,99.90
2019-02-24T06:54:54.974Z,99.90
2019-02-24T06:57:24.259Z,99.90
2019-02-24T06:59:53.561Z,99.90
2019-02-24T07:02:22.857Z,99.90
2019-02-24T07:04:52.148Z,99.90
2019-02-24T07:07:21.451Z,99.90
2019-02-24T07:09:50.790Z,99.90
2019-02-24T07:12:20.061Z,99.90
2019-02-24T07:14:49.440Z,99.90
2019-02-24T07:17:18.726Z,99.90
2019-02-24T07:19:48.978Z,99.90
2019-02-24T07:22:18.371Z,99.90
2019-02-24T07:24:47.662Z,99.90
2019-02-24T07:27:16.949Z,99.90
2019-02-24T07:29:46.239Z,99.90
2019-02-24T07:32:15.538Z,99.90
2019-02-24T07:34:44.832Z,99.90
2019-02-24T07:37:14.117Z,99.90
2019-02-24T07:39:43.402Z,99.90
2019-02-24T07:42:12.768Z,99.90
2019-02-24T07:44:42.300Z,99.90
2019-02-24T07:47:11.579Z,99.90
2019-02-24T07:49:40.872Z,99.90
2019-02-24T07:52:10.146Z,99.90
2019-02-24T07:54:39.472Z,99.90
2019-02-24T07:57:08.751Z,99.90
2019-02-24T07:59:38.040Z,98.90
2019-02-24T08:02:07.492Z,95.60
2019-02-24T08:04:36.855Z,93.00
2019-02-24T08:07:06.133Z,92.00
2019-02-24T08:09:35.432Z,91.00
2019-02-24T08:12:04.719Z,91.50
2019-02-24T08:14:34.014Z,91.30
2019-02-24T08:17:03.295Z,90.00
2019-02-24T08:19:32.586Z,90.70
2019-02-24T08:22:01.880Z,91.30
2019-02-24T08:24:31.168Z,92.00
2019-02-24T08:27:00.453Z,92.80
2019-02-24T08:29:30.221Z,91.80
2019-02-24T08:31:59.498Z,90.60
2019-02-24T08:34:28.796Z,90.80
2019-02-24T08:36:58.076Z,90.90
2019-02-24T08:39:27.454Z,90.50
2019-02-24T08:41:56.723Z,88.30
2019-02-24T08:44:26.072Z,87.40
2019-02-24T08:46:55.382Z,84.90
2019-02-24T08:49:24.670Z,81.90
2019-02-24T08:51:53.964Z,81.40
2019-02-24T08:54:23.258Z,82.90
2019-02-24T08:56:55.565Z,76.10
2019-02-24T08:59:24.498Z,73.30
2019-02-24T09:01:53.786Z,76.40
2019-02-24T09:04:23.083Z,76.90
2019-02-24T09:06:52.369Z,76.00
2019-02-24T09:09:21.658Z,77.10
2019-02-24T09:11:50.967Z,73.50
2019-02-24T09:14:21.538Z,72.80
2019-02-24T09:16:50.929Z,73.50
2019-02-24T09:19:20.215Z,70.80
2019-02-24T09:21:49.527Z,70.40
2019-02-24T09:24:18.821Z,70.70
2019-02-24T09:26:48.125Z,69.80
2019-02-24T09:29:17.401Z,71.60
2019-02-24T09:31:46.720Z,75.80
2019-02-24T09:34:16.026Z,74.70
2019-02-24T09:36:45.348Z,70.10
2019-02-24T09:39:14.630Z,73.50
2019-02-24T09:41:43.936Z,74.50
2019-02-24T09:44:13.224Z,72.60
2019-02-24T09:46:42.524Z,67.40
2019-02-24T09:49:11.806Z,65.60
2019-02-24T09:51:41.101Z,68.60
2019-02-24T09:54:10.393Z,66.10
2019-02-24T09:56:40.183Z,64.00
2019-02-24T09:59:09.468Z,61.60
2019-02-24T10:01:38.766Z,59.30
2019-02-24T10:04:08.059Z,59.00
2019-02-24T10:06:37.357Z,55.10
2019-02-24T10:09:06.642Z,56.70
2019-02-24T10:11:36.126Z,54.20
2019-02-24T10:14:05.420Z,54.90
2019-02-24T10:16:34.728Z,54.30
2019-02-24T10:19:04.016Z,54.40
2019-02-24T10:21:33.319Z,53.00
2019-02-24T10:24:02.612Z,51.20
2019-02-24T10:26:31.912Z,53.50
2019-02-24T10:29:01.206Z,55.80
2019-02-24T10:31:30.504Z,53.90
2019-02-24T10:33:59.791Z,50.00
2019-02-24T10:36:29.291Z,52.60
2019-02-24T10:38:58.769Z,54.30
2019-02-24T10:41:28.075Z,50.10
2019-02-24T10:43:57.363Z,50.30
2019-02-24T10:46:26.671Z,48.40
2019-02-24T10:49:03.146Z,50.90
2019-02-24T10:51:27.028Z,48.50
2019-02-24T10:53:56.323Z,51.40
2019-02-24T10:56:26.575Z,48.40
2019-02-24T10:58:55.875Z,48.00
2019-02-24T11:01:29.634Z,46.50
2019-02-24T11:03:57.309Z,47.30
2019-02-24T11:06:26.734Z,45.80
2019-02-24T11:08:56.039Z,47.20
2019-02-24T11:11:25.332Z,48.10
2019-02-24T11:13:54.635Z,48.30
2019-02-24T11:16:23.924Z,46.00
2019-02-24T11:18:53.227Z,46.90
2019-02-24T11:21:22.514Z,49.10
2019-02-24T11:23:51.811Z,47.80
2019-02-24T11:26:21.102Z,49.00
2019-02-24T11:28:50.417Z,50.00
2019-02-24T11:31:19.695Z,47.70
2019-02-24T11:33:48.997Z,48.90
2019-02-24T11:36:18.351Z,49.40
2019-02-24T11:38:47.659Z,49.90
2019-02-24T11:41:16.948Z,52.80
2019-02-24T11:43:46.252Z,51.80
2019-02-24T11:46:15.534Z,49.60
2019-02-24T11:48:44.842Z,47.90
2019-02-24T11:51:14.132Z,48.00
2019-02-24T11:53:43.446Z,48.70
2019-02-24T11:56:12.791Z,47.80
2019-02-24T11:58:42.090Z,49.10
2019-02-24T12:01:11.387Z,49.50
2019-02-24T12:03:40.695Z,51.90
2019-02-24T12:06:09.983Z,48.80
2019-02-24T12:08:39.327Z,48.20
2019-02-24T12:11:08.621Z,47.90
2019-02-24T12:13:39.874Z,48.30
2019-02-24T12:16:09.170Z,50.20
2019-02-24T12:18:38.563Z,49.60
2019-02-24T12:21:07.836Z,51.90
2019-02-24T12:23:37.160Z,50.60
2019-02-24T12:26:06.456Z,45.30
2019-02-24T12:28:35.751Z,43.90
2019-02-24T12:31:05.052Z,44.40
2019-02-24T12:33:34.362Z,41.00
2019-02-24T12:36:03.708Z,39.80
2019-02-24T12:38:33.010Z,39.50
2019-02-24T12:41:02.303Z,40.20
2019-02-24T12:43:31.607Z,40.10
2019-02-24T12:46:00.899Z,37.90
2019-02-24T12:48:30.189Z,35.70
2019-02-24T12:50:59.492Z,35.00
2019-02-24T12:53:28.813Z,33.10
2019-02-24T12:55:58.111Z,33.20
2019-02-24T12:58:27.419Z,35.40
2019-02-24T13:00:56.768Z,34.00
2019-02-24T13:03:26.356Z,34.10
2019-02-24T13:05:55.647Z,32.50
2019-02-24T13:08:24.950Z,33.10
2019-02-24T13:10:54.242Z,32.60
2019-02-24T13:13:23.531Z,34.20
2019-02-24T13:15:52.832Z,32.90
2019-02-24T13:18:22.123Z,32.00
2019-02-24T13:20:51.441Z,34.20
2019-02-24T13:23:20.795Z,33.40
2019-02-24T13:25:50.105Z,33.20
2019-02-24T13:28:19.391Z,34.10
2019-02-24T13:30:48.698Z,34.80
2019-02-24T13:33:17.996Z,34.90
2019-02-24T13:35:47.299Z,32.30
2019-02-24T13:38:16.591Z,32.60
2019-02-24T13:40:45.891Z,34.00
2019-02-24T13:43:16.681Z,35.00
2019-02-24T13:45:46.155Z,36.10
2019-02-24T13:48:15.445Z,36.90
2019-02-24T13:50:44.738Z,36.90
2019-02-24T13:53:14.069Z,36.50
2019-02-24T13:55:43.378Z,34.20
2019-02-24T13:58:12.689Z,34.30
2019-02-24T14:00:42.034Z,35.00
2019-02-24T14:03:11.372Z,36.60
2019-02-24T14:05:40.919Z,36.60
2019-02-24T14:08:10.420Z,32.80
2019-02-24T14:10:39.875Z,33.60
2019-02-24T14:13:09.361Z,32.80
2019-02-24T14:15:39.131Z,33.40
2019-02-24T14:18:08.575Z,30.90
2019-02-24T14:20:39.110Z,31.10
2019-02-24T14:23:09.460Z,30.20
2019-02-24T14:25:38.845Z,29.70
2019-02-24T14:28:08.431Z,28.40
2019-02-24T14:30:38.362Z,27.70
2019-02-24T14:33:07.769Z,28.60
2019-02-24T14:35:38.193Z,27.60
2019-02-24T14:38:07.654Z,27.90
2019-02-24T14:40:37.261Z,27.20
2019-02-24T14:43:06.660Z,27.50
2019-02-24T14:45:36.210Z,25.90
2019-02-24T14:48:05.717Z,26.10
2019-02-24T14:50:35.240Z,26.70
2019-02-24T14:53:04.575Z,27.60
2019-02-24T14:55:33.876Z,25.60
2019-02-24T14:58:03.167Z,26.60
2019-02-24T15:00:32.460Z,27.20
2019-02-24T15:03:01.750Z,23.40
2019-02-24T15:05:31.049Z,23.40
2019-02-24T15:08:00.360Z,23.30
2019-02-24T15:10:29.654Z,22.00
2019-02-24T15:12:58.954Z,24.50
2019-02-24T15:15:33.155Z,24.80
2019-02-24T15:18:01.171Z,24.90
2019-02-24T15:20:30.496Z,23.10
2019-02-24T15:22:59.824Z,24.40
2019-02-24T15:25:29.130Z,23.80
2019-02-24T15:27:58.442Z,22.20
2019-02-24T15:30:36.143Z,21.10
2019-02-24T15:33:05.439Z,22.20
2019-02-24T15:35:34.711Z,24.70
2019-02-24T15:38:04.176Z,23.80
2019-02-24T15:40:33.463Z,24.50
2019-02-24T15:43:02.760Z,23.50
2019-02-24T15:45:32.062Z,22.30
2019-02-24T15:48:02.135Z,23.00
2019-02-24T15:50:31.432Z,24.90
2019-02-24T15:53:00.730Z,25.00
2019-02-24T15:55:30.025Z,25.20
2019-02-24T15:57:59.312Z,27.00
2019-02-24T16:00:28.665Z,28.00
2019-02-24T16:03:01.478Z,29.10
2019-02-24T16:05:29.328Z,29.70
2019-02-24T16:07:58.608Z,32.50
2019-02-24T16:10:27.913Z,32.10
2019-02-24T16:12:57.198Z,33.40
2019-02-24T16:15:27.527Z,35.60
2019-02-24T16:17:56.841Z,35.60
2019-02-24T16:20:31.318Z,34.90
2019-02-24T16:23:00.636Z,36.70
2019-02-24T16:25:29.927Z,37.10
2019-02-24T16:27:59.266Z,37.50
2019-02-24T16:30:28.544Z,37.70
2019-02-24T16:32:57.848Z,38.50
2019-02-24T16:35:27.135Z,42.50
2019-02-24T16:37:56.459Z,45.60
2019-02-24T16:40:27.392Z,47.60
2019-02-24T16:42:57.754Z,52.50
2019-02-24T16:45:28.011Z,57.50
2019-02-24T16:47:57.306Z,57.40
2019-02-24T16:50:26.595Z,61.50
2019-02-24T16:52:55.892Z,65.70
2019-02-24T16:55:25.189Z,64.30
2019-02-24T16:57:54.492Z,63.70
2019-02-24T17:00:25.115Z,65.40
2019-02-24T17:02:54.416Z,66.30
2019-02-24T17:05:23.708Z,67.40
2019-02-24T17:07:53.920Z,68.10
2019-02-24T17:10:28.246Z,69.40
2019-02-24T17:12:57.615Z,71.00
2019-02-24T17:15:26.891Z,70.80
2019-02-24T17:17:56.188Z,74.30
2019-02-24T17:20:27.537Z,72.30
2019-02-24T17:22:56.844Z,72.90
2019-02-24T17:25:26.134Z,75.50
2019-02-24T17:27:55.435Z,75.40
2019-02-24T17:30:24.788Z,76.50
2019-02-24T17:32:54.108Z,77.60
2019-02-24T17:35:23.396Z,79.20
2019-02-24T17:37:52.731Z,80.50
2019-02-24T17:40:22.643Z,80.10
2019-02-24T17:42:51.938Z,82.70
2019-02-24T17:45:22.207Z,83.30
2019-02-24T17:47:51.507Z,84.20
2019-02-24T17:50:21.759Z,85.00
2019-02-24T17:52:51.050Z,86.30
2019-02-24T17:55:20.403Z,85.60
2019-02-24T17:57:49.872Z,86.10
2019-02-24T18:00:47.690Z,86.90
2019-02-24T18:03:18.980Z,87.60
2019-02-24T18:05:49.239Z,87.90
2019-02-24T18:08:18.526Z,87.00
2019-02-24T18:10:47.811Z,86.50
2019-02-24T18:13:17.104Z,87.50
2019-02-24T18:15:46.378Z,87.10
2019-02-24T18:18:15.684Z,89.60
2019-02-24T18:20:44.971Z,87.40
2019-02-24T18:23:14.258Z,86.20
2019-02-24T18:25:43.552Z,88.50
2019-02-24T18:28:13.720Z,88.00
2019-02-24T18:30:43.547Z,88.00
2019-02-24T18:33:12.843Z,89.30
2019-02-24T18:35:42.131Z,89.40
2019-02-24T18:38:11.426Z,90.30
2019-02-24T18:40:40.707Z,90.90
2019-02-24T18:43:10.004Z,91.20
2019-02-24T18:45:40.249Z,92.20
2019-02-24T18:48:09.603Z,92.60
2019-02-24T18:50:38.908Z,92.80
2019-02-24T18:53:08.252Z,93.30
2019-02-24T18:55:37.529Z,93.70
2019-02-24T18:58:06.815Z,93.40
2019-02-24T19:00:36.120Z,93.80
2019-02-24T19:03:05.577Z,93.90
2019-02-24T19:05:34.930Z,93.80
2019-02-24T19:08:04.318Z,94.40
2019-02-24T19:10:33.612Z,94.20
2019-02-24T19:13:02.887Z,94.60
2019-02-24T19:15:37.139Z,94.40
2019-02-24T19:18:11.638Z,94.00
2019-02-24T19:21:30.993Z,94.60
2019-02-24T19:26:43.726Z,94.80
2019-02-24T19:29:13.056Z,95.00
2019-02-24T19:31:42.356Z,94.90
2019-02-24T19:34:12.741Z,95.00
2019-02-24T19:36:42.087Z,95.00
2019-02-24T19:39:13.707Z,95.10
2019-02-24T19:41:42.992Z,95.00
2019-02-24T19:44:12.301Z,95.20
2019-02-24T19:46:42.277Z,95.20
2019-02-24T19:49:11.650Z,95.00
2019-02-24T19:51:40.935Z,95.30
2019-02-24T19:54:10.271Z,95.40
2019-02-24T19:56:39.554Z,95.50
2019-02-24T19:59:08.883Z,95.80
2019-02-24T20:01:38.172Z,96.00
2019-02-24T20:04:15.612Z,95.70
2019-02-24T20:06:39.415Z,96.20
2019-02-24T20:09:08.710Z,96.20
2019-02-24T20:11:38.147Z,96.20
2019-02-24T20:14:07.430Z,96.50
2019-02-24T20:16:36.722Z,96.30
2019-02-24T20:19:06.008Z,96.60
2019-02-24T20:21:35.295Z,96.50
2019-02-24T20:24:04.589Z,96.40
2019-02-24T20:26:33.875Z,96.60
2019-02-24T20:29:03.157Z,96.80
2019-02-24T20:31:32.456Z,96.90
2019-02-24T20:34:01.737Z,97.10
2019-02-24T20:36:31.020Z,97.20
2019-02-24T20:39:00.299Z,97.20
2019-02-24T20:41:29.602Z,97.10
2019-02-24T20:43:58.884Z,97.40
2019-02-24T20:46:28.182Z,97.60
2019-02-24T20:48:57.463Z,98.00
2019-02-24T20:51:26.821Z,97.90
2019-02-24T20:53:56.130Z,98.00
2019-02-24T20:56:25.425Z,97.90
2019-02-24T20:58:54.712Z,98.20
2019-02-24T21:01:24.010Z,98.00
2019-02-24T21:03:53.291Z,98.30
2019-02-24T21:06:22.586Z,98.30
2019-02-24T21:08:51.871Z,98.40
2019-02-24T21:11:21.183Z,98.40
2019-02-24T21:13:50.647Z,98.50
2019-02-24T21:16:19.985Z,98.40
2019-02-24T21:18:49.264Z,98.50
2019-02-24T21:21:18.559Z,98.60
2019-02-24T21:23:47.892Z,98.60
2019-02-24T21:26:17.178Z,98.50
2019-02-24T21:28:46.463Z,98.40
2019-02-24T21:31:15.766Z,98.70
2019-02-24T21:33:45.055Z,99.10
2019-02-24T21:36:14.353Z,99.30
2019-02-24T21:38:43.633Z,99.50
2019-02-24T21:41:12.920Z,99.50
2019-02-24T21:43:42.202Z,99.60
2019-02-24T21:46:11.500Z,99.60
2019-02-24T21:48:40.801Z,99.70
2019-02-24T21:51:10.144Z,99.80
2019-02-24T21:53:39.427Z,99.90
2019-02-24T21:56:08.786Z,99.80
2019-02-24T21:58:38.075Z,99.90
2019-02-24T22:01:07.368Z,99.90
2019-02-24T22:03:36.657Z,99.90
2019-02-24T22:06:05.979Z,99.90
2019-02-24T22:08:35.279Z,99.90
2019-02-24T22:11:04.588Z,99.90
2019-02-24T22:13:33.867Z,99.90
2019-02-24T22:16:03.158Z,99.90
2019-02-24T22:18:32.470Z,99.90
2019-02-24T22:21:01.755Z,99.90
2019-02-24T22:23:31.047Z,99.90
2019-02-24T22:26:00.327Z,99.90
2019-02-24T22:28:29.620Z,99.90
2019-02-24T22:30:58.915Z,99.90
2019-02-24T22:33:28.208Z,99.90
2019-02-24T22:35:57.486Z,99.90
2019-02-24T22:38:28.320Z,99.90
2019-02-24T22:40:57.598Z,99.90
2019-02-24T22:43:26.889Z,99.90
2019-02-24T22:45:56.179Z,99.90
2019-02-24T22:48:25.458Z,99.90
2019-02-24T22:50:54.752Z,99.90
2019-02-24T22:53:24.049Z,99.90
2019-02-24T22:55:53.407Z,99.90
2019-02-24T22:58:22.862Z,99.90
2019-02-24T23:00:56.054Z,99.90
2019-02-24T23:03:29.719Z,99.90
2019-02-24T23:05:59.003Z,99.90
2019-02-24T23:08:28.301Z,99.90
2019-02-24T23:10:57.579Z,99.90
2019-02-24T23:13:26.871Z,99.90
2019-02-24T23:15:56.154Z,99.90
2019-02-24T23:18:25.445Z,99.90
2019-02-24T23:20:54.730Z,99.90
2019-02-24T23:23:24.032Z,99.90
2019-02-24T23:25:53.314Z,99.90
2019-02-24T23:28:22.605Z,99.90
2019-02-24T23:30:51.892Z,99.90
2019-02-24T23:33:21.186Z,99.90
2019-02-24T23:35:50.454Z,99.90
2019-02-24T23:38:19.750Z,99.90
2019-02-24T23:40:49.032Z,99.90
2019-02-24T23:43:18.325Z,99.90
2019-02-24T23:45:47.611Z,99.90
2019-02-24T23:48:16.907Z,99.90
2019-02-24T23:50:46.229Z,99.90
2019-02-24T23:53:15.520Z,99.90
2019-02-24T23:55:44.794Z,99.90
2019-02-24T23:58:14.090Z,99.90
